Aeroporto :
LOGIN :

Iscrizione | Disclaimer

   EN    FR    IT 

 










Sommario :    VFR   VFR Marginale   IFR   IFR Intensivo   IFR Molto Intensivo
Visibilità : 
Base nubi : 
>= 8 km
>= 3000ft
5 / 8 km
1000 / 3000 ft
1500m / 5 km
500 / 1000 ft
800 / 1500m
200 / 500 ft
< 800m
< 200 ft
Simboli :   Temporali  Nebbia  Neve Forte  Precipitazioni Forti  Vento > 20 kt
SIGMETs :   Varie  Temporali  Ghiacco  Turbolenza  Onda orograficha  Ceneri Vulcaniche






- Altitudine del aeroporto : 20 ft
- Codice IATA : TIV


LYTV - Tivat - Montenegro

ULTIMO METAR :
  • 240830Z 21006KT 140V270 9999 SCT036 15/07 Q1009 NOSIG

METARs OBSOLETI :
  • 240800Z 17004KT 12V250 9999 SCT050 15/08 Q1009 NOSIG
  • 240730Z 15009KT 110V190 9999 BKN050 15/08 Q1008 NOSIG
  • 240700Z 15006KT 110V200 9999 SCT043 16/08 Q1008 NOSIG
  • 240630Z 14005KT 100V190 9999 SCT053 15/10 Q1008 NOSIG
  • 240600Z 13004KT 9999 SCT053 13/10 Q1008 NOSIG
  • 240530Z 15007KT 9999 SCT053 13/09 Q1008 NOSIG
  • 240500Z 16006KT 9999 FEW050 12/09 Q1007 NOSIG
  • 240430Z 14006KT 9999 SCT033 11/08 Q1008 NOSIG
  • 240400Z 15004KT 120V190 9999 SCT040 11/08 Q1007 NOSIG

TAF TAF LYTV
Valido dal 24 a 06 ore il 25 a 06 ore UTC


240500Z 2406/2506 15005KT 9999 SCT033 TX17/2413Z TN08/2504Z
PROB30
TEMPO 2409/2415 25012KT SHRA FEW030TCU SCT033
PROB40
TEMPO 2421/2424 4000 RA



MetMap, La meteo Aeronautica in un colpo d'occhio ! - Copyright ORBIFLY Dicembre 2007 - Disclaimer

ORBIFLY MET'MAP TEAM :

Programmazione e sviluppo : Alexandra Zaïnal
Concezione : Baudouin d'Aumeries
Supporto tecnico e logistico : Manuel Goepfert
Aiuto : Marc-Olivier Méhu
Aiuto per la traduzione : Arnaldo La Scala




FONTI E CREDITI :

   NOAA